createdAt,value
2023-01-19T00:00:54.856Z,23.77
2023-01-19T00:03:29.098Z,22.70
2023-01-19T00:05:56.356Z,22.20
2023-01-19T00:08:23.251Z,23.93
2023-01-19T00:10:53.717Z,23.30
2023-01-19T00:13:21.214Z,24.17
2023-01-19T00:15:48.218Z,23.50
2023-01-19T00:18:15.152Z,22.07
2023-01-19T00:20:42.610Z,22.27
2023-01-19T00:23:09.582Z,22.23
2023-01-19T00:25:42.309Z,22.27
2023-01-19T00:28:14.242Z,23.93
2023-01-19T00:30:42.195Z,23.93
2023-01-19T00:33:09.863Z,22.63
2023-01-19T00:35:36.893Z,23.33
2023-01-19T00:38:03.677Z,23.33
2023-01-19T00:40:30.779Z,22.03
2023-01-19T00:42:57.902Z,23.77
2023-01-19T00:45:25.375Z,23.00
2023-01-19T00:47:57.145Z,23.50
2023-01-19T00:50:26.508Z,23.00
2023-01-19T00:52:55.850Z,22.97
2023-01-19T00:55:23.536Z,21.70
2023-01-19T00:57:51.361Z,22.97
2023-01-19T01:00:19.976Z,22.47
2023-01-19T01:02:48.883Z,21.70
2023-01-19T01:05:16.621Z,21.67
2023-01-19T01:07:45.189Z,21.03
2023-01-19T01:10:21.747Z,21.60
2023-01-19T01:12:56.177Z,20.60
2023-01-19T01:15:27.017Z,22.37
2023-01-19T01:17:54.230Z,21.13
2023-01-19T01:20:24.555Z,21.73
2023-01-19T01:22:53.275Z,21.83
2023-01-19T01:25:22.716Z,24.17
2023-01-19T01:27:50.273Z,23.23
2023-01-19T01:30:18.228Z,22.80
2023-01-19T01:32:45.141Z,22.73
2023-01-19T01:35:13.094Z,24.27
2023-01-19T01:37:40.652Z,23.00
2023-01-19T01:40:08.689Z,24.57
2023-01-19T01:42:35.437Z,22.57
2023-01-19T01:45:15.327Z,21.20
2023-01-19T01:47:45.715Z,23.13
2023-01-19T01:50:26.374Z,23.00
2023-01-19T01:53:06.311Z,22.60
2023-01-19T01:55:42.103Z,22.20
2023-01-19T01:58:11.358Z,23.07
2023-01-19T02:00:58.017Z,22.87
2023-01-19T02:03:26.255Z,22.57
2023-01-19T02:05:57.621Z,21.57
2023-01-19T02:08:55.564Z,22.50
2023-01-19T02:11:41.716Z,21.83
2023-01-19T02:14:08.551Z,20.73
2023-01-19T02:16:37.551Z,21.60
2023-01-19T02:19:12.726Z,20.93
2023-01-19T02:21:50.045Z,21.13
2023-01-19T02:24:17.475Z,21.30
2023-01-19T02:26:47.087Z,22.30
2023-01-19T02:29:20.715Z,22.57
2023-01-19T02:31:48.081Z,21.30
2023-01-19T02:34:17.891Z,21.80
2023-01-19T02:36:55.643Z,22.43
2023-01-19T02:39:50.778Z,22.50
2023-01-19T02:42:35.889Z,21.17
2023-01-19T02:45:06.800Z,20.00
2023-01-19T02:47:47.877Z,20.50
2023-01-19T02:50:45.072Z,21.83
2023-01-19T02:53:32.478Z,22.60
2023-01-19T02:56:37.063Z,22.73
2023-01-19T02:59:19.374Z,23.30
2023-01-19T03:02:10.573Z,22.73
2023-01-19T03:04:48.219Z,22.50
2023-01-19T03:07:26.853Z,24.30
2023-01-19T03:10:21.943Z,24.30
2023-01-19T03:16:38.420Z,24.07
2023-01-19T03:19:12.076Z,23.87
2023-01-19T03:21:43.400Z,24.73
2023-01-19T03:24:12.038Z,24.83
2023-01-19T03:26:44.148Z,24.03
2023-01-19T03:29:13.652Z,25.30
2023-01-19T03:31:44.587Z,25.40
2023-01-19T03:34:14.381Z,25.97
2023-01-19T03:37:04.065Z,25.37
2023-01-19T03:39:31.459Z,26.67
2023-01-19T03:42:03.109Z,25.50
2023-01-19T03:44:32.116Z,24.57
2023-01-19T03:47:00.535Z,26.03
2023-01-19T03:49:30.083Z,25.07
2023-01-19T03:51:58.862Z,25.40
2023-01-19T03:54:26.198Z,25.57
2023-01-19T03:56:54.014Z,25.97
2023-01-19T03:59:21.813Z,25.90
2023-01-19T04:01:49.327Z,27.00
2023-01-19T04:04:16.145Z,26.17
2023-01-19T04:06:43.893Z,26.90
2023-01-19T04:09:10.889Z,28.40
2023-01-19T04:11:38.084Z,28.27
2023-01-19T04:14:04.857Z,27.27
2023-01-19T04:16:31.883Z,27.50
2023-01-19T04:18:58.709Z,27.03
2023-01-19T04:21:25.832Z,26.33
2023-01-19T04:23:53.224Z,27.03
2023-01-19T04:26:20.585Z,27.23
2023-01-19T04:28:47.572Z,25.30
2023-01-19T04:31:14.721Z,28.57
2023-01-19T04:33:41.537Z,29.13
2023-01-19T04:36:08.656Z,28.30
2023-01-19T04:38:35.800Z,30.47
2023-01-19T04:41:02.772Z,28.53
2023-01-19T04:43:30.166Z,29.47
2023-01-19T04:45:57.269Z,31.07
2023-01-19T04:48:23.997Z,29.60
2023-01-19T04:50:52.469Z,29.23
2023-01-19T04:53:19.232Z,30.50
2023-01-19T04:55:46.752Z,28.53
2023-01-19T04:58:13.610Z,30.53
2023-01-19T05:00:40.595Z,28.87
2023-01-19T05:03:07.446Z,28.23
2023-01-19T05:05:34.673Z,29.07
2023-01-19T05:08:01.585Z,27.63
2023-01-19T05:10:28.711Z,28.33
2023-01-19T05:12:55.793Z,27.13
2023-01-19T05:15:23.523Z,30.67
2023-01-19T05:17:50.344Z,29.00
2023-01-19T05:20:17.586Z,27.60
2023-01-19T05:22:52.474Z,30.00
2023-01-19T05:25:19.911Z,28.00
2023-01-19T05:27:46.828Z,28.63
2023-01-19T05:30:14.384Z,28.43
2023-01-19T05:32:41.164Z,29.57
2023-01-19T05:35:08.743Z,26.70
2023-01-19T05:37:35.538Z,28.23
2023-01-19T05:40:02.608Z,28.23
2023-01-19T05:42:30.831Z,27.53
2023-01-19T05:44:59.525Z,29.70
2023-01-19T05:47:26.532Z,30.07
2023-01-19T05:49:53.605Z,30.27
2023-01-19T05:52:20.453Z,29.37
2023-01-19T05:54:48.312Z,32.37
2023-01-19T05:57:15.173Z,30.77
2023-01-19T05:59:42.165Z,29.47
2023-01-19T06:02:09.406Z,29.47
2023-01-19T06:04:36.521Z,30.47
2023-01-19T06:07:03.518Z,29.73
2023-01-19T06:09:30.550Z,29.17
2023-01-19T06:11:59.407Z,29.70
2023-01-19T06:14:26.840Z,29.23
2023-01-19T06:16:53.618Z,28.33
2023-01-19T06:19:20.801Z,31.80
2023-01-19T06:21:49.854Z,29.10
2023-01-19T06:24:16.926Z,28.90
2023-01-19T06:26:43.981Z,28.57
2023-01-19T06:29:12.111Z,27.27
2023-01-19T06:31:38.955Z,28.17
2023-01-19T06:34:06.102Z,28.37
2023-01-19T06:36:32.925Z,28.67
2023-01-19T06:39:03.190Z,26.37
2023-01-19T06:41:29.967Z,28.13
2023-01-19T06:43:57.006Z,29.37
2023-01-19T06:46:23.737Z,26.63
2023-01-19T06:48:50.726Z,29.43
2023-01-19T06:51:17.959Z,28.23
2023-01-19T06:53:45.339Z,29.43
2023-01-19T06:56:12.063Z,30.13
2023-01-19T06:58:40.242Z,29.87
2023-01-19T07:01:07.672Z,30.97
2023-01-19T07:03:36.756Z,30.43
2023-01-19T07:06:06.621Z,29.43
2023-01-19T07:08:35.389Z,29.27
2023-01-19T07:11:26.816Z,29.63
2023-01-19T07:13:55.433Z,27.57
2023-01-19T07:16:22.275Z,28.37
2023-01-19T07:18:50.028Z,28.83
2023-01-19T07:21:17.037Z,28.40
2023-01-19T07:23:44.157Z,26.87
2023-01-19T07:26:10.975Z,29.00
2023-01-19T07:28:38.029Z,29.00
2023-01-19T07:31:05.300Z,27.63
2023-01-19T07:33:33.065Z,28.40
2023-01-19T07:35:59.768Z,32.53
2023-01-19T07:38:26.747Z,32.80
2023-01-19T07:41:07.632Z,33.17
2023-01-19T07:43:34.935Z,33.43
2023-01-19T07:46:04.813Z,35.27
2023-01-19T07:48:32.150Z,31.63
2023-01-19T07:51:11.112Z,32.83
2023-01-19T07:53:40.114Z,36.00
2023-01-19T07:56:07.772Z,32.67
2023-01-19T07:58:34.856Z,31.73
2023-01-19T08:01:06.866Z,29.50
2023-01-19T08:03:34.494Z,29.30
2023-01-19T08:06:02.442Z,31.50
2023-01-19T08:08:30.275Z,30.10
2023-01-19T08:10:56.975Z,29.63
2023-01-19T08:13:24.097Z,31.10
2023-01-19T08:15:52.741Z,29.80
2023-01-19T08:18:20.516Z,33.00
2023-01-19T08:20:47.403Z,32.23
2023-01-19T08:23:14.473Z,41.20
2023-01-19T08:25:44.335Z,39.10
2023-01-19T08:28:13.608Z,45.27
2023-01-19T08:30:43.569Z,59.17
2023-01-19T08:33:12.629Z,64.07
2023-01-19T08:35:47.238Z,59.30
2023-01-19T08:38:14.624Z,67.83
2023-01-19T08:40:42.516Z,68.47
2023-01-19T08:43:12.822Z,77.27
2023-01-19T08:45:42.468Z,75.80
2023-01-19T08:48:10.369Z,80.30
2023-01-19T08:50:37.141Z,75.90
2023-01-19T08:53:06.870Z,75.13
2023-01-19T08:55:35.446Z,65.70
2023-01-19T08:58:06.589Z,69.97
2023-01-19T09:00:34.781Z,63.43
2023-01-19T09:03:04.139Z,66.30
2023-01-19T09:05:35.633Z,58.30
2023-01-19T09:16:03.859Z,60.30
2023-01-19T09:18:31.262Z,62.33
2023-01-19T09:20:58.137Z,60.33
2023-01-19T09:23:25.445Z,59.30
2023-01-19T09:25:57.715Z,53.60
2023-01-19T09:28:25.039Z,65.67
2023-01-19T09:30:52.324Z,65.80
2023-01-19T09:49:38.261Z,81.00
2023-01-19T09:52:05.739Z,76.47
2023-01-19T09:54:40.963Z,74.53
2023-01-19T09:57:12.182Z,66.93
2023-01-19T09:59:39.705Z,69.57
2023-01-19T10:02:28.006Z,67.47
2023-01-19T10:05:20.575Z,65.67
2023-01-19T10:07:53.162Z,63.77
2023-01-19T10:10:20.204Z,60.73
2023-01-19T10:13:08.853Z,63.53
2023-01-19T10:15:41.380Z,61.57
2023-01-19T10:18:31.405Z,56.80
2023-01-19T10:21:12.115Z,59.90
2023-01-19T10:23:45.362Z,59.93
2023-01-19T10:26:23.903Z,57.57
2023-01-19T10:29:01.651Z,70.23
2023-01-19T10:31:28.530Z,72.43
2023-01-19T10:33:55.536Z,74.87
2023-01-19T10:36:29.674Z,75.80
2023-01-19T10:38:58.119Z,69.33
2023-01-19T10:41:47.517Z,69.17
2023-01-19T10:44:25.319Z,69.40
2023-01-19T10:46:54.451Z,69.30
2023-01-19T10:49:29.957Z,69.43
2023-01-19T10:51:59.012Z,65.67
2023-01-19T10:54:30.068Z,72.30
2023-01-19T10:56:59.386Z,66.87
2023-01-19T10:59:44.333Z,65.10
2023-01-19T11:02:30.628Z,60.27
2023-01-19T11:05:00.658Z,54.90
2023-01-19T11:07:33.000Z,53.57
2023-01-19T11:10:20.762Z,48.97
2023-01-19T11:13:07.341Z,42.93
2023-01-19T11:15:57.496Z,41.50
2023-01-19T11:18:32.171Z,43.17
2023-01-19T11:21:02.350Z,41.10
2023-01-19T11:23:33.633Z,42.33
2023-01-19T11:26:05.119Z,38.03
2023-01-19T11:28:33.396Z,36.10
2023-01-19T11:31:18.368Z,36.97
2023-01-19T11:33:51.800Z,37.77
2023-01-19T11:36:19.181Z,37.13
2023-01-19T11:38:48.983Z,34.60
2023-01-19T11:41:26.921Z,33.13
2023-01-19T11:43:57.350Z,34.10
2023-01-19T11:46:31.750Z,34.87
2023-01-19T11:49:02.004Z,34.83
2023-01-19T11:51:36.622Z,37.77
2023-01-19T11:54:16.445Z,38.47
2023-01-19T11:56:43.803Z,37.67
2023-01-19T11:59:12.745Z,39.83
2023-01-19T12:01:51.306Z,42.70
2023-01-19T12:04:28.625Z,45.23
2023-01-19T12:06:57.369Z,45.83
2023-01-19T12:09:31.042Z,46.80
2023-01-19T12:12:08.037Z,43.43
2023-01-19T12:14:41.140Z,44.53
2023-01-19T12:17:16.720Z,46.03
2023-01-19T12:19:55.008Z,45.37
2023-01-19T12:22:23.821Z,46.93
2023-01-19T12:25:00.978Z,43.80
2023-01-19T12:27:40.703Z,45.03
2023-01-19T12:30:27.993Z,44.43
2023-01-19T12:33:30.310Z,46.93
2023-01-19T12:36:33.155Z,47.30
2023-01-19T12:39:05.230Z,47.93
2023-01-19T12:41:37.313Z,49.93
2023-01-19T12:44:10.820Z,50.13
2023-01-19T12:46:38.542Z,48.60
2023-01-19T12:49:11.828Z,49.70
2023-01-19T12:51:38.752Z,52.00
2023-01-19T12:54:17.199Z,51.50
2023-01-19T12:56:44.134Z,49.40
2023-01-19T12:59:24.785Z,48.07
2023-01-19T13:02:29.441Z,47.40
2023-01-19T13:05:15.545Z,46.10
2023-01-19T13:08:07.229Z,44.70
2023-01-19T13:10:58.796Z,42.33
2023-01-19T13:13:31.021Z,45.20
2023-01-19T13:16:18.097Z,40.83
2023-01-19T13:18:48.969Z,43.30
2023-01-19T13:21:29.970Z,40.57
2023-01-19T13:24:02.116Z,40.17
2023-01-19T13:26:32.809Z,41.07
2023-01-19T13:29:13.448Z,40.87
2023-01-19T13:31:43.207Z,43.50
2023-01-19T13:34:24.437Z,41.40
2023-01-19T13:36:53.799Z,41.17
2023-01-19T13:39:31.673Z,41.93
2023-01-19T13:42:02.772Z,42.27
2023-01-19T13:44:36.368Z,42.37
2023-01-19T13:47:04.588Z,43.13
2023-01-19T13:49:40.715Z,43.03
2023-01-19T13:52:15.259Z,41.60
2023-01-19T13:55:02.496Z,46.73
2023-01-19T13:57:33.190Z,44.93
2023-01-19T14:00:11.990Z,44.27
2023-01-19T14:03:21.577Z,49.03
2023-01-19T14:05:54.261Z,47.13
2023-01-19T14:08:22.649Z,50.50
2023-01-19T14:10:52.211Z,46.63
2023-01-19T14:13:29.624Z,43.73
2023-01-19T14:15:59.869Z,43.00
2023-01-19T14:18:31.909Z,43.17
2023-01-19T14:21:05.968Z,44.20
2023-01-19T14:23:49.681Z,43.60
2023-01-19T14:26:38.540Z,43.17
2023-01-19T14:29:25.943Z,46.67
2023-01-19T14:32:01.554Z,44.23
2023-01-19T14:34:34.158Z,42.00
2023-01-19T14:37:02.955Z,44.27
2023-01-19T14:39:33.595Z,44.13
2023-01-19T14:42:04.058Z,44.67
2023-01-19T14:44:35.760Z,46.70
2023-01-19T14:47:04.081Z,46.97
2023-01-19T14:49:37.104Z,44.60
2023-01-19T14:52:27.731Z,45.47
2023-01-19T14:54:57.296Z,45.03
2023-01-19T14:57:24.205Z,44.30
2023-01-19T14:59:52.270Z,44.63
2023-01-19T15:02:19.235Z,44.23
2023-01-19T15:04:47.999Z,46.40
2023-01-19T15:07:19.984Z,50.07
2023-01-19T15:09:48.097Z,50.33
2023-01-19T15:12:17.537Z,46.97
2023-01-19T15:14:45.519Z,45.97
2023-01-19T15:17:26.653Z,46.60
2023-01-19T15:19:55.875Z,44.03
2023-01-19T15:22:26.739Z,41.90
2023-01-19T15:24:57.658Z,55.73
2023-01-19T15:27:24.837Z,49.10
2023-01-19T15:29:52.012Z,50.23
2023-01-19T15:32:18.795Z,49.70
2023-01-19T15:34:45.786Z,47.70
2023-01-19T15:37:12.701Z,46.77
2023-01-19T15:39:39.904Z,44.97
2023-01-19T15:42:14.341Z,45.33
2023-01-19T15:44:41.485Z,44.23
2023-01-19T15:47:10.098Z,46.60
2023-01-19T15:49:37.123Z,48.03
2023-01-19T15:52:04.013Z,46.47
2023-01-19T15:54:31.011Z,48.70
2023-01-19T15:56:57.803Z,64.60
2023-01-19T15:59:24.900Z,55.97
2023-01-19T16:01:51.934Z,54.93
2023-01-19T16:04:19.099Z,55.43
2023-01-19T16:06:45.944Z,55.13
2023-01-19T16:09:18.370Z,53.70
2023-01-19T16:11:45.091Z,51.67
2023-01-19T16:14:12.307Z,51.60
2023-01-19T16:16:39.198Z,51.43
2023-01-19T16:19:06.288Z,56.13
2023-01-19T16:21:33.088Z,55.23
2023-01-19T16:24:00.121Z,59.13
2023-01-19T16:26:30.159Z,55.23
2023-01-19T16:29:02.070Z,58.53
2023-01-19T16:31:29.235Z,55.63
2023-01-19T16:33:56.469Z,58.30
2023-01-19T16:36:29.141Z,54.73
2023-01-19T16:39:01.190Z,57.97
2023-01-19T16:41:28.351Z,77.23
2023-01-19T16:43:57.248Z,73.60
2023-01-19T16:46:30.384Z,68.50
2023-01-19T16:49:18.791Z,62.47
2023-01-19T16:51:45.931Z,59.33
2023-01-19T16:54:15.118Z,59.77
2023-01-19T16:56:42.503Z,53.57
2023-01-19T16:59:12.226Z,53.27
2023-01-19T17:01:39.933Z,55.13
2023-01-19T17:04:07.638Z,59.63
2023-01-19T17:06:34.893Z,64.57
2023-01-19T17:09:02.327Z,62.53
2023-01-19T17:11:30.955Z,65.63
2023-01-19T17:14:00.598Z,63.17
2023-01-19T17:16:29.037Z,62.33
2023-01-19T17:18:56.912Z,63.97
2023-01-19T17:21:24.530Z,58.27
2023-01-19T17:23:53.691Z,55.00
2023-01-19T17:26:21.415Z,55.67
2023-01-19T17:28:48.445Z,55.33
2023-01-19T17:31:18.794Z,55.03
2023-01-19T17:33:48.706Z,54.93
2023-01-19T17:36:22.291Z,51.67
2023-01-19T17:38:50.012Z,52.67
2023-01-19T17:41:22.482Z,55.60
2023-01-19T17:43:51.205Z,58.17
2023-01-19T17:46:19.971Z,54.70
2023-01-19T17:48:55.283Z,53.27
2023-01-19T17:51:23.099Z,51.73
2023-01-19T17:53:51.642Z,57.00
2023-01-19T17:56:23.253Z,56.67
2023-01-19T17:58:50.400Z,64.13
2023-01-19T18:01:22.499Z,65.87
2023-01-19T18:03:49.570Z,54.50
2023-01-19T18:06:16.686Z,53.03
2023-01-19T18:08:46.233Z,51.00
2023-01-19T18:11:15.105Z,54.37
2023-01-19T18:13:44.161Z,52.50
2023-01-19T18:16:14.431Z,54.77
2023-01-19T18:18:42.056Z,52.40
2023-01-19T18:21:11.342Z,52.60
2023-01-19T18:23:38.604Z,52.60
2023-01-19T18:26:10.785Z,52.77
2023-01-19T18:28:38.050Z,53.90
2023-01-19T18:31:12.337Z,59.77
2023-01-19T18:33:40.529Z,60.60
2023-01-19T18:36:08.795Z,61.23
2023-01-19T18:38:36.185Z,60.57
2023-01-19T18:41:14.845Z,61.13
2023-01-19T18:43:42.494Z,64.93
2023-01-19T18:46:09.651Z,68.40
2023-01-19T18:48:38.008Z,67.67
2023-01-19T18:51:10.871Z,73.53
2023-01-19T18:53:38.237Z,66.20
2023-01-19T18:56:06.245Z,73.40
2023-01-19T18:58:36.286Z,67.93
2023-01-19T19:01:03.414Z,68.73
2023-01-19T19:03:30.451Z,70.37
2023-01-19T19:06:01.557Z,67.20
2023-01-19T19:08:28.893Z,71.47
2023-01-19T19:10:55.571Z,67.00
2023-01-19T19:13:23.655Z,65.60
2023-01-19T19:15:52.444Z,71.23
2023-01-19T19:18:19.695Z,65.53
2023-01-19T19:20:46.556Z,68.37
2023-01-19T19:23:13.712Z,55.97
2023-01-19T19:25:40.536Z,56.53
2023-01-19T19:28:07.788Z,54.93
2023-01-19T19:30:37.696Z,52.80
2023-01-19T19:33:04.957Z,46.87
2023-01-19T19:35:31.680Z,43.63
2023-01-19T19:37:58.947Z,44.37
2023-01-19T19:40:27.205Z,41.13
2023-01-19T19:42:56.358Z,41.20
2023-01-19T19:45:24.822Z,43.20
2023-01-19T19:47:51.984Z,40.60
2023-01-19T19:50:18.985Z,37.60
2023-01-19T19:52:46.093Z,37.67
2023-01-19T19:55:13.033Z,35.70
2023-01-19T19:57:40.226Z,34.77
2023-01-19T20:00:07.887Z,35.93
2023-01-19T20:02:37.529Z,34.77
2023-01-19T20:05:05.195Z,33.17
2023-01-19T20:07:32.706Z,35.57
2023-01-19T20:09:59.482Z,34.87
2023-01-19T20:12:27.358Z,33.57
2023-01-19T20:14:54.143Z,31.50
2023-01-19T20:17:21.720Z,32.03
2023-01-19T20:19:49.160Z,30.33
2023-01-19T20:22:16.497Z,33.30
2023-01-19T20:24:43.437Z,29.80
2023-01-19T20:27:10.497Z,30.90
2023-01-19T20:29:37.372Z,30.80
2023-01-19T20:32:04.488Z,29.70
2023-01-19T20:34:33.506Z,29.63
2023-01-19T20:37:01.842Z,30.00
2023-01-19T20:39:33.176Z,29.33
2023-01-19T20:42:01.104Z,27.30
2023-01-19T20:44:28.030Z,29.97
2023-01-19T20:46:55.938Z,28.10
2023-01-19T20:49:23.092Z,28.57
2023-01-19T20:51:52.014Z,27.30
2023-01-19T20:54:22.589Z,27.50
2023-01-19T20:56:49.944Z,27.23
2023-01-19T20:59:16.973Z,29.80
2023-01-19T21:01:44.814Z,27.60
2023-01-19T21:04:12.740Z,28.27
2023-01-19T21:06:40.888Z,25.37
2023-01-19T21:09:09.031Z,21.77
2023-01-19T21:11:38.334Z,22.30
2023-01-19T21:14:06.086Z,21.97
2023-01-19T21:16:34.865Z,23.10
2023-01-19T21:19:01.671Z,21.67
2023-01-19T21:21:31.232Z,22.47
2023-01-19T21:24:01.094Z,22.37
2023-01-19T21:26:31.518Z,22.83
2023-01-19T21:28:59.540Z,23.20
2023-01-19T21:31:28.096Z,25.57
2023-01-19T21:33:55.534Z,24.47
2023-01-19T21:36:23.235Z,22.93
2023-01-19T21:38:51.439Z,21.33
2023-01-19T21:41:18.811Z,21.47
2023-01-19T21:43:46.135Z,22.13
2023-01-19T21:46:19.412Z,21.17
2023-01-19T21:48:46.875Z,21.50
2023-01-19T21:51:15.142Z,23.97
2023-01-19T21:53:41.918Z,22.07
2023-01-19T21:56:10.588Z,21.67
2023-01-19T21:58:37.644Z,19.90
2023-01-19T22:01:10.701Z,21.60
2023-01-19T22:03:37.707Z,21.90
2023-01-19T22:06:06.669Z,23.00
2023-01-19T22:08:33.958Z,25.07
2023-01-19T22:11:09.686Z,24.43
2023-01-19T22:13:38.677Z,25.77
2023-01-19T22:16:10.337Z,25.03
2023-01-19T22:18:39.270Z,27.40
2023-01-19T22:21:09.185Z,24.93
2023-01-19T22:23:36.382Z,26.77
2023-01-19T22:26:04.321Z,28.77
2023-01-19T22:28:31.453Z,27.93
2023-01-19T22:31:16.349Z,28.00
2023-01-19T22:33:43.527Z,28.90
2023-01-19T22:36:19.754Z,30.83
2023-01-19T22:39:03.828Z,28.13
2023-01-19T22:41:33.982Z,28.23
2023-01-19T22:44:03.355Z,28.00
2023-01-19T22:46:32.865Z,31.57
2023-01-19T22:49:00.087Z,31.17
2023-01-19T22:51:28.876Z,31.07
2023-01-19T22:53:55.804Z,29.53
2023-01-19T22:56:25.183Z,29.27
2023-01-19T22:58:52.803Z,31.73
2023-01-19T23:01:33.311Z,29.23
2023-01-19T23:04:02.276Z,29.87
2023-01-19T23:06:31.728Z,28.73
2023-01-19T23:09:01.788Z,30.00
2023-01-19T23:11:35.869Z,30.33
2023-01-19T23:14:04.279Z,32.20
2023-01-19T23:16:31.329Z,30.83
2023-01-19T23:18:58.526Z,32.30
2023-01-19T23:21:28.333Z,31.80
2023-01-19T23:23:59.677Z,31.50
2023-01-19T23:26:27.265Z,31.23
2023-01-19T23:28:56.671Z,31.47
2023-01-19T23:31:26.911Z,31.13
2023-01-19T23:33:56.629Z,34.07
2023-01-19T23:36:25.611Z,32.70
2023-01-19T23:38:55.488Z,32.10
2023-01-19T23:41:23.865Z,31.43
2023-01-19T23:43:51.743Z,30.47
2023-01-19T23:46:20.102Z,30.70
2023-01-19T23:48:47.474Z,31.30
2023-01-19T23:51:18.038Z,32.60
2023-01-19T23:53:46.043Z,31.50
2023-01-19T23:56:28.065Z,31.10
2023-01-19T23:58:59.051Z,30.20
